Time;durP1;ratioP1;P1;durP2;ratioP2;P2;SDS_P1;SDS_P2;PMS_P1;PMS_P2;Temp;Humidity;BMP_temperature;BMP_pressure;BME280_temperature;BME280_humidity;BME280_pressure;Samples;Min_cycle;Max_cycle;Signal;HPM_P1;HPM_P2
2022/05/31 00:00:52;;;;;;;3.13;2.30;;;;;;;8.09;100.00;96741.88;4954684;28;20287;-49
2022/05/31 00:03:20;;;;;;;2.67;2.57;;;;;;;8.07;100.00;96743.06;4969150;28;20240;-47
2022/05/31 00:05:50;;;;;;;2.80;2.60;;;;;;;8.06;100.00;96734.31;4934213;28;20325;-48
2022/05/31 00:08:18;;;;;;;2.63;2.50;;;;;;;7.88;100.00;96742.56;4969421;28;20407;-50
2022/05/31 00:10:46;;;;;;;2.43;2.33;;;;;;;7.62;100.00;96743.75;4966742;28;20297;-48
2022/05/31 00:13:58;;;;;;;2.77;2.67;;;;;;;7.47;100.00;96734.97;4962738;28;20280;-51
2022/05/31 00:16:26;;;;;;;2.73;2.63;;;;;;;7.35;100.00;96734.53;4947078;28;20240;-48
2022/05/31 00:18:55;;;;;;;2.43;2.23;;;;;;;7.46;100.00;96739.41;4967347;28;20205;-47
2022/05/31 00:21:31;;;;;;;2.83;2.63;;;;;;;7.43;100.00;96731.88;4933977;28;20217;-48
2022/05/31 00:23:59;;;;;;;2.30;2.20;;;;;;;7.41;100.00;96738.28;4960975;28;20249;-50
2022/05/31 00:26:27;;;;;;;2.90;2.80;;;;;;;7.52;100.00;96730.81;4966442;28;20228;-45
2022/05/31 00:28:55;;;;;;;2.70;2.50;;;;;;;7.43;100.00;96731.88;4966282;28;20244;-47
2022/05/31 00:31:23;;;;;;;3.00;2.70;;;;;;;7.26;100.00;96740.84;4948950;28;20220;-49
2022/05/31 00:33:52;;;;;;;2.40;2.30;;;;;;;7.20;100.00;96743.19;4962113;28;20213;-48
2022/05/31 00:36:20;;;;;;;2.50;2.40;;;;;;;7.30;100.00;96737.72;4933489;28;20240;-47
2022/05/31 00:38:50;;;;;;;2.50;2.30;;;;;;;7.33;100.00;96732.09;4958242;28;20202;-46
2022/05/31 00:41:25;;;;;;;2.80;2.70;;;;;;;7.50;100.00;96730.16;4965580;28;20229;-49
2022/05/31 00:43:59;;;;;;;3.30;3.10;;;;;;;7.56;100.00;96722.53;4961813;28;20849;-50
2022/05/31 00:46:32;;;;;;;2.77;2.60;;;;;;;7.75;100.00;96721.25;4953395;28;20280;-50
2022/05/31 00:49:04;;;;;;;3.20;3.00;;;;;;;7.99;100.00;96720.22;4968790;28;20233;-46
2022/05/31 00:51:38;;;;;;;3.27;3.07;;;;;;;8.03;100.00;96723.31;4929604;28;20305;-49
2022/05/31 00:54:13;;;;;;;3.20;2.90;;;;;;;7.78;100.00;96719.09;4965151;28;20312;-48
2022/05/31 00:56:41;;;;;;;3.03;2.83;;;;;;;7.80;100.00;96727.63;4964724;28;20217;-52
2022/05/31 00:59:12;;;;;;;3.30;3.00;;;;;;;7.68;100.00;96726.41;4966626;28;20649;-50
2022/05/31 01:01:43;;;;;;;2.47;2.37;;;;;;;7.53;100.00;96732.44;4950373;28;20208;-47
2022/05/31 01:04:11;;;;;;;2.57;2.40;;;;;;;7.37;100.00;96730.75;4969105;28;20271;-48
2022/05/31 01:06:39;;;;;;;3.10;2.97;;;;;;;7.45;100.00;96729.88;4925473;28;20728;-49
2022/05/31 01:09:09;;;;;;;2.83;2.73;;;;;;;7.37;100.00;96737.81;4967540;28;20216;-48
2022/05/31 01:11:40;;;;;;;2.70;2.60;;;;;;;7.30;100.00;96736.88;4964199;28;20233;-47
2022/05/31 01:14:10;;;;;;;2.93;2.73;;;;;;;7.46;100.00;96739.41;4965616;28;20198;-45
2022/05/31 01:16:52;;;;;;;3.07;2.87;;;;;;;7.26;100.00;96746.13;4967476;28;20713;-48
2022/05/31 01:22:04;;;;;;;3.30;3.10;;;;;;;7.16;100.00;96752.44;4928988;28;20641;-47
2022/05/31 01:24:39;;;;;;;3.03;2.93;;;;;;;7.08;100.00;96752.50;4963925;28;20218;-49
2022/05/31 01:27:13;;;;;;;3.27;3.07;;;;;;;7.18;100.00;96755.72;4965816;28;20233;-48
2022/05/31 01:29:41;;;;;;;2.80;2.70;;;;;;;7.29;100.00;96751.03;4962502;28;20362;-48
2022/05/31 01:32:11;;;;;;;4.10;2.53;;;;;;;7.17;100.00;96748.81;4967387;28;20206;-49
2022/05/31 01:34:53;;;;;;;3.50;3.20;;;;;;;7.01;100.00;96751.50;4948101;28;20293;-51
2022/05/31 01:37:23;;;;;;;2.67;2.57;;;;;;;6.89;100.00;96751.91;4931806;28;20233;-50
2022/05/31 01:39:53;;;;;;;3.00;2.70;;;;;;;6.68;100.00;96749.84;4965212;28;20194;-47
2022/05/31 01:42:25;;;;;;;3.10;2.87;;;;;;;6.66;100.00;96747.41;4964841;28;20220;-50
2022/05/31 01:44:59;;;;;;;3.00;2.90;;;;;;;6.66;100.00;96746.56;4964164;28;20236;-52
2022/05/31 01:47:28;;;;;;;2.97;2.77;;;;;;;6.69;100.00;96751.47;4967447;28;20229;-46
2022/05/31 01:49:56;;;;;;;3.13;2.97;;;;;;;6.64;100.00;96745.91;4947342;28;20729;-48
2022/05/31 01:52:26;;;;;;;3.50;3.00;;;;;;;6.58;100.00;96751.84;4932196;28;20233;-49
2022/05/31 01:54:54;;;;;;;3.27;3.07;;;;;;;6.48;100.00;96741.50;4965408;28;21577;-48
2022/05/31 01:57:23;;;;;;;3.17;2.97;;;;;;;6.53;100.00;96752.34;4965279;28;20222;-50
2022/05/31 01:59:55;;;;;;;3.20;3.00;;;;;;;6.52;100.00;96750.72;4962354;28;20709;-47
2022/05/31 02:02:24;;;;;;;3.23;3.13;;;;;;;6.48;100.00;96741.50;4969529;28;20607;-52
2022/05/31 02:04:52;;;;;;;3.27;3.07;;;;;;;6.48;100.00;96746.78;4954343;28;21182;-49
2022/05/31 02:07:23;;;;;;;3.10;2.97;;;;;;;6.21;100.00;96748.81;4935367;28;20229;-47
2022/05/31 02:09:53;;;;;;;3.33;3.20;;;;;;;6.10;100.00;96742.09;4970204;28;20289;-54
2022/05/31 02:12:26;;;;;;;3.30;3.10;;;;;;;6.23;100.00;96752.09;4970324;28;20202;-49
2022/05/31 02:14:54;;;;;;;3.40;3.07;;;;;;;6.15;100.00;96747.69;4967067;28;20208;-50
2022/05/31 02:17:22;;;;;;;4.27;3.60;;;;;;;6.18;100.00;96749.13;4967609;28;20321;-49
2022/05/31 02:19:50;;;;;;;4.00;3.70;;;;;;;6.07;100.00;96750.31;4967492;28;20228;-50
2022/05/31 02:22:22;;;;;;;3.60;3.40;;;;;;;5.95;100.00;96744.53;4916087;28;21081;-47
2022/05/31 02:24:52;;;;;;;3.80;3.50;;;;;;;5.88;100.00;96749.63;4964892;28;20222;-44
2022/05/31 02:27:20;;;;;;;3.50;3.30;;;;;;;5.75;100.00;96750.13;4970148;28;20384;-46
2022/05/31 02:29:48;;;;;;;3.87;3.67;;;;;;;5.99;100.00;96740.59;4967334;28;20284;-51
2022/05/31 02:32:16;;;;;;;3.53;3.23;;;;;;;5.78;100.00;96744.53;4968262;28;20215;-49
2022/05/31 02:34:47;;;;;;;3.97;3.67;;;;;;;5.61;100.00;96745.53;4968199;28;20197;-52
2022/05/31 02:37:16;;;;;;;3.70;3.40;;;;;;;5.43;100.00;96745.66;4952796;28;20233;-49
2022/05/31 02:39:44;;;;;;;4.73;3.50;;;;;;;5.35;100.00;96739.41;4923652;28;20718;-44
2022/05/31 02:42:14;;;;;;;4.10;3.90;;;;;;;5.27;100.00;96742.00;4969920;28;20719;-47
2022/05/31 02:44:42;;;;;;;3.90;3.70;;;;;;;5.22;100.00;96745.13;4963501;28;20226;-47
2022/05/31 02:47:11;;;;;;;4.43;3.67;;;;;;;5.13;100.00;96745.28;4969389;28;20313;-48
2022/05/31 02:49:40;;;;;;;3.30;3.17;;;;;;;5.04;100.00;96749.66;4964139;28;20824;-45
2022/05/31 02:52:08;;;;;;;3.60;3.40;;;;;;;5.06;100.00;96753.78;4953030;28;20210;-48
2022/05/31 02:54:36;;;;;;;5.73;4.80;;;;;;;4.98;100.00;96747.69;4923347;28;20730;-46
2022/05/31 02:57:05;;;;;;;3.70;3.50;;;;;;;4.95;100.00;96758.50;4967944;28;20582;-50
2022/05/31 02:59:34;;;;;;;4.10;3.90;;;;;;;4.84;100.00;96752.56;4965349;28;20212;-49
2022/05/31 03:02:02;;;;;;;3.70;3.50;;;;;;;4.72;100.00;96756.44;4967602;28;20198;-50
2022/05/31 03:04:30;;;;;;;4.20;3.90;;;;;;;4.77;100.00;96757.63;4967319;28;20202;-47
2022/05/31 03:07:01;;;;;;;4.17;3.80;;;;;;;4.93;100.00;96758.69;4950576;28;21117;-50
2022/05/31 03:09:30;;;;;;;4.17;3.87;;;;;;;4.87;100.00;96761.91;4924590;28;20217;-45
2022/05/31 03:12:02;;;;;;;4.03;3.80;;;;;;;4.70;100.00;96761.88;4968957;28;20641;-44
2022/05/31 03:14:36;;;;;;;3.77;3.57;;;;;;;4.68;100.00;96758.56;4965873;28;20209;-47
2022/05/31 03:17:08;;;;;;;3.80;3.60;;;;;;;4.56;100.00;96759.84;4968298;28;20230;-49
2022/05/31 03:19:40;;;;;;;4.47;4.10;;;;;;;4.59;100.00;96760.34;4967248;28;20288;-44
2022/05/31 03:22:12;;;;;;;4.47;4.27;;;;;;;4.62;100.00;96757.38;4949965;28;20209;-50
2022/05/31 03:24:43;;;;;;;4.23;3.97;;;;;;;4.73;100.00;96765.97;4921151;28;20222;-45
2022/05/31 03:27:12;;;;;;;4.47;4.17;;;;;;;4.81;100.00;96763.41;4967345;28;20321;-49
2022/05/31 03:29:45;;;;;;;4.80;4.40;;;;;;;4.94;100.00;96768.22;4963432;28;20328;-47
2022/05/31 03:32:14;;;;;;;5.03;4.63;;;;;;;5.00;100.00;96767.56;4965461;28;20210;-44
2022/05/31 03:34:42;;;;;;;6.70;5.07;;;;;;;4.90;100.00;96765.06;4963667;28;20320;-47
2022/05/31 03:37:10;;;;;;;5.93;4.53;;;;;;;5.14;100.00;96770.56;4965308;28;20838;-50
2022/05/31 03:39:38;;;;;;;4.50;4.17;;;;;;;5.14;100.00;96775.81;4914318;28;20218;-49
2022/05/31 03:42:08;;;;;;;4.20;3.93;;;;;;;5.06;100.00;96772.19;4968007;28;20674;-47
2022/05/31 03:44:36;;;;;;;4.83;4.43;;;;;;;5.13;100.00;96777.63;4938520;28;20415;-48
2022/05/31 03:47:06;;;;;;;5.87;5.47;;;;;;;5.09;100.00;96786.78;4966057;28;20458;-45
2022/05/31 03:49:34;;;;;;;4.20;4.00;;;;;;;5.08;100.00;96782.50;4966356;28;20853;-48
2022/05/31 03:52:03;;;;;;;4.70;4.40;;;;;;;5.06;100.00;96787.09;4967479;28;20210;-49
2022/05/31 03:54:31;;;;;;;4.27;4.07;;;;;;;5.12;100.00;96783.84;4945367;28;20212;-45
2022/05/31 03:56:59;;;;;;;4.40;4.10;;;;;;;5.14;100.00;96784.53;4924600;28;20225;-45
2022/05/31 03:59:27;;;;;;;4.50;4.20;;;;;;;5.19;100.00;96789.28;4964103;28;20421;-50
2022/05/31 04:01:55;;;;;;;4.57;4.27;;;;;;;5.22;100.00;96792.41;4968571;28;20288;-50
2022/05/31 04:04:24;;;;;;;4.83;4.47;;;;;;;5.21;100.00;96787.31;4938354;28;20720;-49
2022/05/31 04:06:52;;;;;;;5.07;4.70;;;;;;;5.25;100.00;96783.38;4966151;28;20957;-53
2022/05/31 04:09:20;;;;;;;4.73;4.40;;;;;;;5.49;100.00;96795.78;4960786;28;20280;-48
2022/05/31 04:11:48;;;;;;;3.73;3.53;;;;;;;5.45;100.00;96794.44;4920583;28;20853;-51
2022/05/31 04:14:17;;;;;;;3.87;3.63;;;;;;;5.59;100.00;96800.88;4966151;28;20210;-45
2022/05/31 04:20:37;;;;;;;4.27;3.93;;;;;;;5.94;100.00;96787.59;4943349;28;20312;-48
2022/05/31 04:26:02;;;;;;;4.47;4.20;;;;;;;6.02;100.00;96795.53;4956469;28;21006;-48
2022/05/31 04:28:31;;;;;;;4.10;3.90;;;;;;;6.21;100.00;96796.16;4919411;28;20240;-49
2022/05/31 04:31:04;;;;;;;4.80;4.50;;;;;;;6.46;100.00;96793.50;4966909;28;20209;-49
2022/05/31 04:33:32;;;;;;;4.90;4.60;;;;;;;6.59;100.00;96795.63;4964315;28;20206;-47
2022/05/31 04:36:04;;;;;;;3.90;3.70;;;;;;;6.61;100.00;96804.97;4967754;28;20775;-47
2022/05/31 04:38:32;;;;;;;3.87;3.57;;;;;;;6.95;100.00;96803.88;4965915;28;20629;-47
2022/05/31 04:41:01;;;;;;;3.23;3.03;;;;;;;6.95;100.00;96800.44;4949249;28;20641;-49
2022/05/31 04:43:29;;;;;;;3.87;3.67;;;;;;;7.22;100.00;96806.28;4915964;28;20280;-49
2022/05/31 04:45:57;;;;;;;3.87;3.57;;;;;;;7.21;100.00;96804.63;4963545;28;20244;-48
2022/05/31 04:48:26;;;;;;;3.60;3.43;;;;;;;7.43;100.00;96802.19;4967155;28;20253;-52
2022/05/31 04:50:54;;;;;;;4.03;3.80;;;;;;;7.73;100.00;96802.34;4966021;28;20229;-48
2022/05/31 04:53:23;;;;;;;3.63;3.43;;;;;;;7.86;100.00;96804.41;4966049;28;20225;-46
2022/05/31 04:55:52;;;;;;;3.97;3.77;;;;;;;7.93;100.00;96800.88;4963451;28;20201;-46
2022/05/31 04:58:20;;;;;;;3.80;3.60;;;;;;;7.97;100.00;96806.63;4927519;28;20324;-48
2022/05/31 05:00:49;;;;;;;3.90;3.70;;;;;;;8.29;100.00;96809.16;4948579;28;20815;-45
2022/05/31 05:03:17;;;;;;;3.60;3.30;;;;;;;8.29;100.00;96802.09;4965623;28;20218;-48
2022/05/31 05:05:45;;;;;;;3.50;3.30;;;;;;;8.62;100.00;96799.16;4963358;28;20325;-48
2022/05/31 05:08:13;;;;;;;4.27;3.97;;;;;;;8.64;100.00;96799.81;4968117;28;20797;-48
2022/05/31 05:10:46;;;;;;;3.33;3.13;;;;;;;8.73;100.00;96800.53;4961633;28;20401;-46
2022/05/31 05:13:15;;;;;;;3.30;3.00;;;;;;;8.94;100.00;96793.69;4933667;28;20245;-50
2022/05/31 05:15:44;;;;;;;3.23;3.03;;;;;;;9.06;100.00;96794.06;4928396;28;20320;-46
2022/05/31 05:18:12;;;;;;;3.87;3.57;;;;;;;9.24;100.00;96793.66;4958742;28;20353;-48
2022/05/31 05:20:41;;;;;;;3.73;3.43;;;;;;;9.49;100.00;96802.09;4950928;28;20216;-51
2022/05/31 05:23:09;;;;;;;3.23;3.03;;;;;;;9.67;100.00;96803.53;4964757;28;20210;-48
2022/05/31 05:25:37;;;;;;;3.47;3.17;;;;;;;9.70;100.00;96800.50;4963917;28;20304;-46
2022/05/31 05:30:49;;;;;;;3.10;2.90;;;;;;;9.92;100.00;96796.03;4930394;28;20217;-49
2022/05/31 05:33:18;;;;;;;3.00;2.90;;;;;;;10.08;100.00;96796.75;4938224;28;20237;-50
2022/05/31 05:35:47;;;;;;;2.83;2.73;;;;;;;10.12;100.00;96798.84;4965685;28;20209;-47
2022/05/31 05:38:15;;;;;;;2.93;2.70;;;;;;;10.40;100.00;96802.56;4968065;28;22566;-48
2022/05/31 05:40:43;;;;;;;3.13;3.03;;;;;;;10.33;100.00;96799.81;4964499;28;20277;-48
2022/05/31 05:43:13;;;;;;;3.13;2.93;;;;;;;10.87;100.00;96802.88;4971207;28;20297;-50
2022/05/31 05:45:41;;;;;;;2.90;2.80;;;;;;;10.98;100.00;96806.78;4931047;28;21196;-48
2022/05/31 05:48:10;;;;;;;2.70;2.60;;;;;;;11.07;100.00;96815.41;4951349;28;20744;-50
2022/05/31 05:50:38;;;;;;;3.10;2.90;;;;;;;11.16;100.00;96816.88;4964959;28;20299;-48
2022/05/31 05:53:08;;;;;;;3.53;3.33;;;;;;;11.12;100.00;96816.47;4969733;28;20220;-52
2022/05/31 05:55:36;;;;;;;2.83;2.63;;;;;;;11.21;100.00;96811.00;4966696;28;20397;-51
2022/05/31 05:58:08;;;;;;;3.80;3.07;;;;;;;11.31;100.00;96813.28;4969931;28;20332;-51
2022/05/31 06:00:42;;;;;;;4.13;3.43;;;;;;;11.62;100.00;96810.13;4912705;28;21233;-50
2022/05/31 06:03:13;;;;;;;5.00;2.90;;;;;;;11.53;100.00;96813.97;4944477;28;20209;-49
2022/05/31 06:05:42;;;;;;;3.30;3.10;;;;;;;11.72;100.00;96813.19;4936917;28;20202;-50
2022/05/31 06:08:12;;;;;;;3.30;3.00;;;;;;;11.92;100.00;96816.91;4963632;28;20234;-49
2022/05/31 06:10:45;;;;;;;2.97;2.87;;;;;;;12.17;100.00;96814.56;4969449;28;20233;-52
2022/05/31 06:13:16;;;;;;;3.07;2.87;;;;;;;12.16;100.00;96805.75;4968718;28;20668;-48
2022/05/31 06:15:51;;;;;;;2.80;2.60;;;;;;;12.25;100.00;96808.22;4942037;28;20212;-54
2022/05/31 06:18:21;;;;;;;2.87;2.67;;;;;;;12.30;100.00;96803.09;4968989;28;20228;-51
2022/05/31 06:20:52;;;;;;;3.40;3.10;;;;;;;12.55;100.00;96800.66;4944029;28;20313;-51
2022/05/31 06:23:21;;;;;;;2.53;2.43;;;;;;;12.97;100.00;96803.03;4970034;28;20296;-50
2022/05/31 06:25:49;;;;;;;2.67;2.57;;;;;;;12.52;100.00;96800.25;4965152;28;20301;-50
2022/05/31 06:28:17;;;;;;;2.40;2.30;;;;;;;12.77;100.00;96799.59;4965449;28;20327;-50
2022/05/31 06:30:47;;;;;;;2.67;2.57;;;;;;;12.91;100.00;96798.53;4967964;28;20933;-53
2022/05/31 06:33:15;;;;;;;2.37;2.27;;;;;;;13.02;100.00;96789.13;4932561;28;20213;-48
2022/05/31 06:35:43;;;;;;;5.23;2.53;;;;;;;13.09;100.00;96791.75;4946721;28;20679;-48
2022/05/31 06:38:11;;;;;;;3.43;2.47;;;;;;;13.17;100.00;96792.31;4950420;28;20222;-51
2022/05/31 06:40:40;;;;;;;2.63;2.53;;;;;;;13.17;100.00;96780.88;4967972;28;20640;-51
2022/05/31 06:43:08;;;;;;;2.27;2.07;;;;;;;13.34;100.00;96780.41;4966583;28;20953;-49
2022/05/31 06:45:42;;;;;;;2.90;2.70;;;;;;;13.21;100.00;96774.09;4968335;28;20224;-51
2022/05/31 06:48:11;;;;;;;2.97;2.77;;;;;;;13.40;100.00;96771.56;4936102;28;20730;-52
2022/05/31 06:50:40;;;;;;;2.80;2.60;;;;;;;13.26;100.00;96763.66;4948682;28;20202;-49
2022/05/31 06:58:43;;;;;;;2.53;2.30;;;;;;;14.37;100.00;96751.06;4959818;28;20724;-50
2022/05/31 07:01:11;;;;;;;2.50;2.30;;;;;;;14.28;100.00;96754.00;4967451;28;20234;-50
2022/05/31 07:03:41;;;;;;;2.30;2.20;;;;;;;14.42;100.00;96752.06;4929800;28;20222;-51
2022/05/31 07:06:09;;;;;;;3.53;2.13;;;;;;;14.59;100.00;96751.50;4945966;28;20818;-47
2022/05/31 07:08:38;;;;;;;2.23;2.13;;;;;;;14.68;100.00;96754.69;4966712;28;20307;-50
2022/05/31 07:11:07;;;;;;;2.73;2.27;;;;;;;15.07;100.00;96760.63;4965314;28;20210;-54
2022/05/31 07:13:35;;;;;;;3.53;2.17;;;;;;;15.02;100.00;96750.66;4967025;28;20415;-52
2022/05/31 07:16:04;;;;;;;2.00;1.77;;;;;;;14.90;100.00;96750.59;4954408;28;20796;-50
2022/05/31 07:18:43;;;;;;;2.43;2.23;;;;;;;15.33;100.00;96742.69;4922006;28;20224;-50
2022/05/31 07:21:11;;;;;;;1.97;1.87;;;;;;;15.39;100.00;96746.31;4941249;28;20336;-49
2022/05/31 07:23:41;;;;;;;2.10;2.00;;;;;;;15.53;100.00;96746.94;4964921;28;20294;-49
2022/05/31 07:26:10;;;;;;;2.47;2.27;;;;;;;15.48;100.00;96748.44;4966836;28;20542;-50
2022/05/31 07:28:58;;;;;;;2.00;1.90;;;;;;;15.65;100.00;96749.66;4964945;28;20447;-51
2022/05/31 07:31:27;;;;;;;1.90;1.80;;;;;;;16.01;100.00;96740.72;4966727;28;20202;-48
2022/05/31 07:33:58;;;;;;;2.00;1.80;;;;;;;15.62;100.00;96741.06;4925069;28;21052;-53
2022/05/31 07:36:27;;;;;;;2.00;1.90;;;;;;;16.11;100.00;96729.47;4947819;28;20401;-47
2022/05/31 07:38:55;;;;;;;2.43;2.30;;;;;;;16.14;99.78;96730.88;4962937;28;20305;-52
2022/05/31 07:41:23;;;;;;;1.67;1.67;;;;;;;15.91;100.00;96722.59;4968082;28;20198;-45
2022/05/31 07:43:51;;;;;;;2.00;1.90;;;;;;;16.26;98.43;96729.00;4964808;28;20485;-47
2022/05/31 07:46:20;;;;;;;1.73;1.60;;;;;;;16.57;100.00;96735.06;4967778;28;20210;-45
2022/05/31 07:48:48;;;;;;;1.87;1.77;;;;;;;16.62;99.53;96735.16;4929894;28;20235;-48
2022/05/31 07:51:18;;;;;;;1.53;1.53;;;;;;;16.42;99.63;96727.50;4947814;28;20237;-51
2022/05/31 07:53:47;;;;;;;1.80;1.80;;;;;;;16.73;100.00;96722.03;4966775;28;20690;-48
2022/05/31 07:56:15;;;;;;;2.40;2.30;;;;;;;16.83;96.04;96726.75;4967222;28;20210;-54
2022/05/31 07:58:44;;;;;;;2.50;2.03;;;;;;;16.73;98.04;96733.53;4963828;28;20214;-46
2022/05/31 08:01:14;;;;;;;2.30;2.20;;;;;;;16.95;93.78;96738.28;4966864;28;20253;-48
2022/05/31 08:03:43;;;;;;;1.60;1.60;;;;;;;17.04;95.34;96734.22;4942019;28;20710;-47
2022/05/31 08:06:13;;;;;;;1.93;1.83;;;;;;;17.09;96.70;96733.50;4939024;28;20217;-48
2022/05/31 08:08:43;;;;;;;2.93;1.70;;;;;;;17.29;93.15;96735.78;4969550;28;20616;-52
2022/05/31 08:11:13;;;;;;;1.90;1.80;;;;;;;17.36;87.04;96735.63;4964184;28;20202;-45
2022/05/31 08:13:42;;;;;;;2.10;2.00;;;;;;;17.32;82.25;96729.94;4967217;28;20788;-52
2022/05/31 08:16:12;;;;;;;2.20;2.00;;;;;;;17.41;88.48;96734.91;4968707;28;20803;-54
2022/05/31 08:18:42;;;;;;;1.60;1.50;;;;;;;17.49;83.38;96737.19;4965915;28;20213;-50
2022/05/31 08:21:13;;;;;;;1.70;1.60;;;;;;;17.29;81.64;96740.31;4919357;28;20209;-54
2022/05/31 08:23:43;;;;;;;1.60;1.60;;;;;;;17.10;80.71;96737.81;4956425;28;20263;-50
2022/05/31 08:26:11;;;;;;;1.50;1.40;;;;;;;17.13;83.93;96737.34;4967879;28;20744;-47
2022/05/31 08:28:40;;;;;;;2.17;1.53;;;;;;;17.34;77.15;96729.69;4966374;28;20243;-49
2022/05/31 08:31:11;;;;;;;2.73;1.97;;;;;;;17.66;73.48;96737.25;4956342;28;21585;-49
2022/05/31 08:33:40;;;;;;;2.50;1.67;;;;;;;17.73;72.67;96729.06;4963305;28;20497;-49
2022/05/31 08:36:08;;;;;;;1.73;1.63;;;;;;;17.97;68.27;96734.28;4929417;28;20213;-52
2022/05/31 08:38:36;;;;;;;1.53;1.43;;;;;;;17.78;71.01;96734.50;4955723;28;20336;-51
2022/05/31 08:41:13;;;;;;;1.80;1.70;;;;;;;17.99;64.88;96716.06;4964544;28;20209;-47
2022/05/31 08:43:52;;;;;;;2.50;1.80;;;;;;;17.93;66.58;96718.69;4969182;28;20261;-49
2022/05/31 08:46:31;;;;;;;1.53;1.43;;;;;;;18.14;59.40;96720.91;4965094;28;20213;-48
2022/05/31 08:49:01;;;;;;;1.33;1.33;;;;;;;18.21;61.27;96717.00;4969963;28;20239;-50
2022/05/31 08:51:54;;;;;;;1.47;1.37;;;;;;;18.37;63.59;96715.38;4926567;28;20304;-51
2022/05/31 08:57:25;;;;;;;1.60;1.30;;;;;;;18.51;57.09;96710.50;4964775;28;20681;-55
2022/05/31 08:59:57;;;;;;;1.63;1.50;;;;;;;18.36;56.91;96716.44;4967515;28;20573;-57
2022/05/31 09:02:30;;;;;;;1.77;1.67;;;;;;;18.44;61.59;96717.91;4965883;28;20789;-53
2022/05/31 09:05:19;;;;;;;1.50;1.50;;;;;;;18.72;50.95;96702.69;4968150;28;20345;-51
2022/05/31 09:07:49;;;;;;;2.00;1.90;;;;;;;18.75;50.13;96704.09;4931400;28;20423;-47
2022/05/31 09:10:28;;;;;;;1.37;1.27;;;;;;;18.73;51.28;96709.69;4954738;28;20213;-46
2022/05/31 09:13:00;;;;;;;1.90;1.20;;;;;;;18.97;52.95;96712.16;4971205;28;20197;-54
2022/05/31 09:15:33;;;;;;;2.43;1.50;;;;;;;18.94;48.05;96713.47;4969549;28;20917;-53
2022/05/31 09:18:09;;;;;;;1.53;1.43;;;;;;;19.06;50.27;96707.19;4972516;28;20241;-53
2022/05/31 09:20:40;;;;;;;1.00;1.00;;;;;;;19.18;53.11;96701.69;4968189;28;20305;-49
2022/05/31 09:23:09;;;;;;;2.00;1.90;;;;;;;19.23;51.67;96691.81;4933331;28;20994;-53
2022/05/31 09:25:41;;;;;;;2.57;2.37;;;;;;;19.06;52.35;96694.56;4959616;28;21406;-52
2022/05/31 09:28:22;;;;;;;3.50;3.30;;;;;;;19.33;50.19;96693.78;4968382;28;20286;-50
2022/05/31 09:30:50;;;;;;;1.50;1.40;;;;;;;19.52;50.91;96688.88;4973829;28;20727;-49
2022/05/31 09:33:23;;;;;;;1.37;1.30;;;;;;;19.49;45.07;96685.88;4970116;28;20202;-50
2022/05/31 09:35:59;;;;;;;1.70;1.70;;;;;;;19.28;45.88;96680.31;4970731;28;20410;-46
2022/05/31 09:38:54;;;;;;;2.13;1.93;;;;;;;19.16;47.04;96698.44;4927518;28;20928;-49
2022/05/31 09:41:25;;;;;;;1.97;1.87;;;;;;;19.38;48.65;96696.53;4944547;28;20397;-50
2022/05/31 09:44:01;;;;;;;1.70;1.60;;;;;;;19.38;45.08;96687.69;4970323;28;20212;-47
2022/05/31 09:46:35;;;;;;;5.77;2.33;;;;;;;19.01;48.99;96686.44;4966973;28;20879;-47
2022/05/31 09:49:19;;;;;;;1.93;1.50;;;;;;;19.16;44.72;96688.50;4973344;28;20610;-49
2022/05/31 09:51:48;;;;;;;2.17;1.53;;;;;;;19.08;46.98;96686.28;4970754;28;20212;-49
2022/05/31 09:57:08;;;;;;;1.40;1.40;;;;;;;19.12;45.65;96675.81;4972386;28;20838;-48
2022/05/31 09:59:45;;;;;;;1.23;1.20;;;;;;;19.06;45.72;96678.47;4962423;28;20253;-48
2022/05/31 10:02:21;;;;;;;1.30;1.30;;;;;;;19.28;43.09;96666.06;4969487;28;20277;-46
2022/05/31 10:04:50;;;;;;;1.80;1.70;;;;;;;19.36;44.35;96674.47;4974385;28;20212;-49
2022/05/31 10:07:33;;;;;;;1.60;1.60;;;;;;;19.24;44.52;96671.94;4965661;28;20222;-49
2022/05/31 10:10:03;;;;;;;2.20;1.50;;;;;;;19.48;44.35;96668.13;4934198;28;20232;-52
2022/05/31 10:12:31;;;;;;;3.53;1.40;;;;;;;19.54;43.25;96659.09;4969593;28;20197;-50
2022/05/31 10:15:03;;;;;;;2.47;1.40;;;;;;;19.55;42.60;96659.88;4958477;28;20755;-46
2022/05/31 10:17:36;;;;;;;1.57;1.47;;;;;;;19.41;44.70;96648.75;4965949;28;20802;-50
2022/05/31 10:20:20;;;;;;;1.70;1.60;;;;;;;19.74;42.73;96646.88;4956646;28;21065;-49
2022/05/31 10:22:56;;;;;;;2.33;2.13;;;;;;;19.68;41.48;96651.41;4972150;28;20206;-52
2022/05/31 10:25:29;;;;;;;3.03;2.40;;;;;;;19.79;43.07;96636.16;4924077;28;20540;-45
2022/05/31 10:28:00;;;;;;;1.93;1.83;;;;;;;19.97;43.69;96626.91;4973655;28;20265;-51
2022/05/31 10:30:31;;;;;;;1.83;1.73;;;;;;;19.98;39.60;96641.19;4954780;28;20232;-49
2022/05/31 10:33:06;;;;;;;2.30;1.73;;;;;;;20.06;43.04;96635.31;4973980;28;20289;-52
2022/05/31 10:35:36;;;;;;;1.67;1.57;;;;;;;20.05;41.13;96634.50;4970776;28;20391;-52
2022/05/31 10:38:10;;;;;;;2.30;1.70;;;;;;;20.04;41.27;96635.56;4969704;28;20256;-54
2022/05/31 10:40:47;;;;;;;1.43;1.33;;;;;;;20.13;40.83;96630.53;4920659;28;20738;-52
2022/05/31 10:43:27;;;;;;;2.30;1.70;;;;;;;20.13;41.86;96633.22;4971040;28;20279;-52
2022/05/31 10:45:57;;;;;;;1.43;1.40;;;;;;;20.02;42.45;96626.97;4955963;28;20708;-55
2022/05/31 10:48:26;;;;;;;1.50;1.40;;;;;;;20.18;40.42;96630.56;4966476;28;20237;-56
2022/05/31 10:50:59;;;;;;;1.67;1.60;;;;;;;20.13;38.96;96627.84;4970986;28;20258;-51
2022/05/31 10:53:36;;;;;;;1.17;1.17;;;;;;;20.32;39.42;96627.44;4968399;28;20233;-51
2022/05/31 10:56:11;;;;;;;1.50;1.40;;;;;;;20.31;38.71;96617.75;4958167;28;20325;-53
2022/05/31 10:58:52;;;;;;;4.50;1.87;;;;;;;20.27;39.14;96625.50;4959207;28;20216;-49
2022/05/31 11:01:43;;;;;;;1.63;1.53;;;;;;;20.34;39.74;96607.25;4953087;28;20224;-50
2022/05/31 11:04:31;;;;;;;1.80;1.70;;;;;;;20.79;40.69;96610.44;4970057;28;20217;-52
2022/05/31 11:07:07;;;;;;;2.37;1.57;;;;;;;20.95;40.31;96615.84;4955077;28;20796;-49
2022/05/31 11:12:42;;;;;;;1.37;1.37;;;;;;;21.15;39.77;96609.72;4923758;28;20210;-50
2022/05/31 11:15:21;;;;;;;1.70;1.60;;;;;;;21.07;41.00;96615.63;4968816;28;20758;-52
2022/05/31 11:18:07;;;;;;;1.60;1.60;;;;;;;21.31;38.77;96610.56;4955938;28;20284;-49
2022/05/31 11:20:41;;;;;;;1.70;1.60;;;;;;;21.36;40.45;96607.06;4970012;28;20392;-47
2022/05/31 11:23:32;;;;;;;1.60;1.40;;;;;;;21.00;39.28;96605.09;4970470;28;20296;-50
2022/05/31 11:26:20;;;;;;;1.93;1.83;;;;;;;21.25;43.77;96608.94;4970261;28;20312;-48
2022/05/31 11:29:18;;;;;;;1.03;1.03;;;;;;;21.58;39.47;96604.13;4965582;28;20617;-51
2022/05/31 11:31:55;;;;;;;1.87;1.77;;;;;;;21.87;38.14;96600.09;4969275;28;20237;-50
2022/05/31 11:34:35;;;;;;;2.43;1.70;;;;;;;21.90;38.96;96605.75;4956818;28;20238;-55
2022/05/31 11:37:26;;;;;;;1.43;1.33;;;;;;;22.03;38.85;96600.88;4969047;28;20930;-52
2022/05/31 11:40:04;;;;;;;2.30;1.30;;;;;;;21.81;37.31;96596.59;4971166;28;20482;-54
2022/05/31 11:42:56;;;;;;;1.23;1.23;;;;;;;22.10;37.64;96596.00;4932653;28;20221;-49
2022/05/31 11:45:33;;;;;;;1.53;1.43;;;;;;;22.36;37.86;96587.84;4961196;28;20232;-47
2022/05/31 11:48:26;;;;;;;1.97;1.50;;;;;;;22.35;37.41;96583.53;4956407;28;20374;-48
2022/05/31 11:51:05;;;;;;;1.43;1.33;;;;;;;22.17;35.10;96582.22;4960918;28;20720;-49
2022/05/31 11:53:52;;;;;;;2.17;1.37;;;;;;;22.18;34.42;96581.16;4966911;28;20980;-48
2022/05/31 11:56:25;;;;;;;5.43;1.57;;;;;;;22.35;35.36;96570.03;4970416;28;20285;-53
2022/05/31 11:58:56;;;;;;;1.57;1.47;;;;;;;22.49;35.39;96579.19;4930911;28;20217;-50
2022/05/31 12:01:28;;;;;;;1.40;1.30;;;;;;;22.36;34.37;96574.34;4967017;28;20229;-51
2022/05/31 12:04:05;;;;;;;1.20;1.20;;;;;;;22.64;34.74;96582.91;4968729;28;20202;-52
2022/05/31 12:06:38;;;;;;;1.80;1.70;;;;;;;22.87;35.36;96583.31;4965640;28;20904;-53
2022/05/31 12:09:14;;;;;;;1.90;1.80;;;;;;;22.86;34.87;96579.00;4969743;28;20305;-51
2022/05/31 12:11:48;;;;;;;1.73;1.40;;;;;;;22.86;33.93;96574.44;4967876;28;20287;-50
2022/05/31 12:14:17;;;;;;;2.87;1.73;;;;;;;23.00;34.65;96571.94;4928915;28;20221;-51
2022/05/31 12:16:46;;;;;;;1.53;1.43;;;;;;;23.15;35.56;96568.31;4969852;28;20248;-49
2022/05/31 12:19:22;;;;;;;2.00;1.53;;;;;;;23.47;34.93;96563.53;4965272;28;20641;-52